Latest Weather Observations for Gabo Island

IDV60801

Issued at 3:31 am EST Wednesday 29 July 2015 (issued every 30 minutes, with the page automatically refreshed every 10 minutes)

About weather observations | Map of weather stations | Latest weather observations for VIC | Other Formats
Station Details ID: 084016 Name: GABO ISLAND LIGHTHOUSE Lat: -37.57 Lon: 149.92 Height: 15.2 m
Data from the previous 72 hours. | See also: Recent months at Gabo Island
Date/Time
EST
Temp
°C
App
Temp
°C
Dew
Point
Rel
Hum
%
Delta-T
°C
Wind Press
QNH
hPa
Press
MSL
hPa
Rain
since 9 am
mm
Dir
 
Spd
km/h
Gust
km/h
Spd
kts
Gust
kts
29/03:30am 8.8 4.6 5.7 81 1.4 WNW 17 22 9 12 1032.3 - 0.0
29/03:00am 8.9 4.2 6.0 82 1.3 WNW 20 24 11 13 1032.4 1032.4 0.0
29/02:30am 8.8 4.6 5.9 82 1.3 WNW 17 24 9 13 1032.4 - 0.0
29/02:00am 9.4 5.1 6.8 84 1.2 WNW 19 24 10 13 1032.5 - 0.0
29/01:30am 9.8 5.3 6.8 81 1.4 W 20 30 11 16 1032.7 - 0.0
29/01:00am 9.9 5.0 6.7 80 1.5 WNW 22 30 12 16 1032.7 - 0.0
29/12:30am 10.0 5.6 6.5 79 1.6 WNW 19 28 10 15 1032.6 - 0.0
29/12:00am 10.7 3.9 7.1 78 1.7 W 32 43 17 23 1032.7 1032.8 0.0
 
Date/Time
EST
Temp
°C
App
Temp
°C
Dew
Point
Rel
Hum
%
Delta-T
°C
Wind Press
QNH
hPa
Press
MSL
hPa
Rain
since 9 am
mm
Dir
 
Spd
km/h
Gust
km/h
Spd
kts
Gust
kts
28/11:30pm 11.1 4.3 7.5 78 1.7 W 33 43 18 23 1032.7 - 0.0
28/11:00pm 11.2 4.6 7.6 78 1.7 WSW 32 39 17 21 1032.5 - 0.0
28/10:30pm 11.5 5.7 7.8 78 1.8 WSW 28 35 15 19 1032.6 - 0.0
28/10:00pm 11.2 5.3 7.4 77 1.8 W 28 35 15 19 1032.7 - 0.0
28/09:30pm 11.4 6.3 7.6 77 1.8 W 24 32 13 17 1032.8 - 0.0
28/09:00pm 11.8 6.8 7.9 77 1.9 W 24 32 13 17 1032.7 1032.8 0.0
28/08:30pm 11.4 6.4 7.9 79 1.7 W 24 33 13 18 1032.6 - 0.0
28/08:00pm 11.5 5.0 8.2 80 1.6 WSW 32 39 17 21 1032.3 - 0.0
28/07:30pm 12.1 4.9 7.5 73 2.2 WSW 35 44 19 24 1032.0 - 0.0
28/07:00pm 12.1 4.4 7.3 72 2.3 WSW 37 46 20 25 1031.6 - 0.0
28/06:30pm 12.2 3.2 7.4 72 2.3 WSW 44 54 24 29 1031.1 - 0.0
28/06:00pm 12.3 3.4 7.5 72 2.3 WSW 44 54 24 29 1030.7 1030.7 0.0
28/05:30pm 12.4 1.8 6.9 69 2.6 WSW 52 63 28 34 1030.4 - 0.0
28/05:00pm 12.7 2.5 7.1 69 2.7 WSW 50 61 27 33 1030.2 - 0.0
28/04:30pm 12.7 2.7 6.3 65 3.0 WSW 48 61 26 33 1029.9 - 0.0
28/04:00pm 12.9 2.5 6.1 63 3.2 WSW 50 65 27 35 1030.0 - 0.0
28/03:47pm 13.2 2.9 6.5 64 3.2 WSW 50 69 27 37 1030.0 - 0.0
28/03:30pm 13.2 2.1 6.2 62 3.3 WSW 54 67 29 36 1030.0 - 0.0
28/03:00pm 13.2 2.8 6.0 61 3.4 WSW 50 61 27 33 1029.8 1029.9 0.0
28/02:30pm 13.3 2.8 5.8 60 3.5 WSW 50 61 27 33 1029.8 - 0.0
28/02:10pm 13.6 3.7 6.7 63 3.3 WSW 48 67 26 36 1029.7 - 0.0
28/02:00pm 13.4 2.2 6.0 61 3.5 WSW 54 65 29 35 1029.7 - 0.0
28/01:30pm 13.5 2.7 6.1 61 3.5 SW 52 65 28 35 1029.8 - 0.0
28/01:00pm 13.6 4.0 6.2 61 3.5 SW 46 57 25 31 1029.9 - 0.0
28/12:30pm 13.8 4.3 6.9 63 3.3 WSW 46 56 25 30 1030.2 - 0.0
28/12:00pm 13.5 4.6 7.5 67 2.9 WSW 44 57 24 31 1030.5 1030.6 0.0
28/11:30am 13.3 3.7 7.8 69 2.7 WSW 48 57 26 31 1030.6 - 0.0
28/11:16am 13.1 4.4 7.8 70 2.6 WSW 43 61 23 33 1030.6 - 0.0
28/11:00am 13.1 4.2 7.5 69 2.7 WSW 44 59 24 32 1030.7 - 0.0
28/10:30am 13.0 4.3 7.6 70 2.6 WSW 43 54 23 29 1030.9 - 0.0
28/10:00am 13.1 4.8 7.8 70 2.6 WSW 41 48 22 26 1030.7 - 0.0
28/09:30am 12.8 5.0 8.1 73 2.3 WSW 39 50 21 27 1030.5 - 0.0
28/09:00am 12.1 3.3 7.3 72 2.3 WSW 43 52 23 28 1030.2 1030.3 0.0
28/08:30am 11.8 2.8 7.2 73 2.2 W 44 56 24 30 1029.8 - 0.0
28/08:00am 11.6 1.8 7.2 74 2.1 WSW 48 65 26 35 1029.3 - 0.0
28/07:30am 11.6 1.9 7.7 77 1.9 WSW 48 61 26 33 1029.0 - 0.0
28/07:00am 11.6 2.2 7.2 74 2.1 WSW 46 57 25 31 1028.4 - 0.0
28/06:30am 11.5 2.5 7.1 74 2.1 W 44 56 24 30 1027.9 - 0.0
28/06:00am 11.4 2.2 6.5 72 2.3 W 44 57 24 31 1027.5 1027.4 0.0
28/05:55am 11.4 2.3 6.7 73 2.2 WSW 44 63 24 34 1027.3 - 0.0
28/05:30am 11.3 2.3 6.6 73 2.2 WSW 43 57 23 31 1027.1 - 0.0
28/05:00am 11.4 2.3 5.8 68 2.6 W 43 57 23 31 1026.7 - 0.0
28/04:30am 11.5 2.2 5.9 68 2.6 WSW 44 57 24 31 1026.8 - 0.0
28/04:00am 11.4 1.7 5.8 68 2.6 W 46 67 25 36 1026.2 - 0.0
28/03:56am 11.2 1.1 5.5 68 2.6 WSW 48 67 26 36 1026.2 - 0.0
28/03:30am 11.2 1.1 5.5 68 2.6 WSW 48 61 26 33 1026.1 - 0.0
28/03:00am 11.1 1.3 5.2 67 2.7 W 46 61 25 33 1026.0 1025.9 0.0
28/02:42am 11.2 2.1 5.8 69 2.5 WSW 43 61 23 33 1026.1 - 0.0
28/02:30am 11.2 1.4 5.5 68 2.6 WSW 46 59 25 32 1026.1 - 0.0
28/02:00am 10.9 1.6 5.2 68 2.6 W 43 56 23 30 1026.2 - 0.0
28/01:30am 10.9 0.6 4.9 66 2.7 W 48 61 26 33 1025.8 - 0.0
28/01:00am 11.1 0.8 4.6 64 2.9 WSW 48 59 26 32 1025.8 - 0.0
28/12:30am 11.3 0.4 5.4 67 2.7 WSW 52 67 28 36 1025.7 - 0.0
28/12:00am 11.2 0.2 5.0 65 2.8 W 52 65 28 35 1025.5 1025.5 0.0
 
Date/Time
EST
Temp
°C
App
Temp
°C
Dew
Point
Rel
Hum
%
Delta-T
°C
Wind Press
QNH
hPa
Press
MSL
hPa
Rain
since 9 am
mm
Dir
 
Spd
km/h
Gust
km/h
Spd
kts
Gust
kts
27/11:30pm 11.4 0.9 5.5 67 2.7 WSW 50 65 27 35 1025.6 - 0.0
27/11:00pm 11.3 0.4 5.4 67 2.7 WSW 52 65 28 35 1025.8 - 0.0
27/10:30pm 11.3 0.3 5.1 65 2.8 WSW 52 65 28 35 1025.6 - 0.0
27/10:02pm 11.2 -0.2 4.8 64 2.9 WSW 54 72 29 39 1025.1 - 0.0
27/10:00pm 11.1 -0.2 5.2 67 2.7 WSW 54 69 29 37 1025.1 - 0.0
27/09:30pm 11.2 -0.1 5.5 68 2.6 WSW 54 70 29 38 1025.1 - 0.0
27/09:03pm 11.0 -0.3 5.5 69 2.5 WSW 54 72 29 39 1025.0 - 0.0
27/09:00pm 11.1 -0.2 5.2 67 2.7 WSW 54 70 29 38 1025.0 1025.1 0.0
27/08:30pm 11.1 0.1 5.2 67 2.7 WSW 52 67 28 36 1025.0 - 0.0
27/08:00pm 11.2 -0.2 5.0 65 2.8 WSW 54 69 29 37 1024.8 - 0.0
27/07:42pm 11.4 0.5 5.5 67 2.7 WSW 52 72 28 39 1024.7 - 0.0
27/07:30pm 11.2 0.0 4.2 62 3.1 WSW 52 67 28 36 1024.5 - 0.0
27/07:01pm 11.1 -0.7 4.9 65 2.8 WSW 56 76 30 41 1024.3 - 0.0
27/07:00pm 11.6 0.1 4.2 60 3.3 WSW 54 69 29 37 1024.2 - 0.0
27/06:30pm 11.3 0.4 5.4 67 2.7 WSW 52 65 28 35 1024.1 - 0.0
27/06:15pm 11.3 0.4 5.7 68 2.6 WSW 52 70 28 38 1024.1 - 0.0
27/06:00pm 11.5 0.9 5.1 65 2.9 WSW 50 65 27 35 1023.9 1023.9 0.0
27/05:30pm 11.4 0.0 5.0 65 2.9 WSW 54 67 29 36 1023.4 - 0.0
27/05:00pm 11.6 0.9 4.5 61 3.2 WSW 50 63 27 34 1023.1 - 0.0
27/04:30pm 11.8 1.0 3.9 58 3.5 WSW 50 65 27 35 1022.7 - 0.0
27/04:00pm 12.2 1.7 5.5 63 3.1 WSW 50 69 27 37 1022.3 - 0.0
27/03:30pm 12.1 1.3 4.3 59 3.5 WSW 50 67 27 36 1022.1 - 0.0
27/03:00pm 11.9 -0.3 3.8 57 3.6 WSW 57 80 31 43 1022.1 1022.1 0.0
27/02:32pm 12.3 0.9 4.9 60 3.4 WSW 54 72 29 39 1021.8 - 0.0
27/02:30pm 12.2 0.8 5.0 61 3.3 WSW 54 67 29 36 1021.8 - 0.0
27/02:00pm 12.2 -0.7 3.9 57 3.7 WSW 61 80 33 43 1021.5 - 0.0
27/01:32pm 12.3 0.2 3.2 54 4.0 WSW 56 74 30 40 1021.4 - 0.0
27/01:30pm 12.2 0.2 3.9 57 3.7 WSW 56 69 30 37 1021.5 - 0.0
27/01:00pm 12.2 -0.2 4.5 59 3.5 WSW 59 74 32 40 1021.1 - 0.0
27/12:30pm 11.9 -0.2 4.3 59 3.4 WSW 57 76 31 41 1021.5 - 0.0
27/12:00pm 12.2 0.4 4.7 60 3.4 WSW 56 72 30 39 1021.3 1021.3 0.0
27/11:49am 11.6 -0.3 4.5 61 3.2 WSW 56 74 30 40 1021.3 - 0.0
27/11:30am 11.1 -1.0 4.1 62 3.1 WSW 57 74 31 40 1021.5 - 0.0
27/11:00am 11.0 -1.5 4.0 62 3.1 WSW 59 82 32 44 1021.4 - 0.0
27/10:34am 10.9 -1.8 4.9 66 2.7 WSW 61 82 33 44 1021.2 - 0.0
27/10:30am 11.0 -2.2 4.3 63 3.0 WSW 63 80 34 43 1021.2 - 0.0
27/10:20am 10.8 -2.0 4.6 65 2.8 WSW 61 83 33 45 1020.9 - 0.0
27/10:00am 10.8 -2.1 4.0 63 3.0 WSW 61 76 33 41 1020.6 - 0.0
27/09:39am 10.7 -1.9 3.4 60 3.2 WSW 59 80 32 43 1020.2 - 0.0
27/09:30am 10.7 -2.7 3.4 60 3.2 WSW 63 80 34 43 1020.0 - 0.0
27/09:24am 10.6 -2.5 3.2 60 3.2 WSW 61 80 33 43 1020.0 - 0.0
27/09:00am 10.1 -3.0 2.9 61 3.1 W 61 78 33 42 1019.8 1019.8 0.0
27/08:40am 9.9 -3.3 2.3 59 3.2 WSW 61 80 33 43 1019.6 - 0.0
27/08:30am 10.3 -3.2 3.1 61 3.1 W 63 78 34 42 1019.6 - 0.0
27/08:10am 9.7 -3.2 2.1 59 3.2 W 59 78 32 42 1019.4 - 0.0
27/08:00am 9.6 -3.7 1.9 58 3.2 WSW 61 76 33 41 1019.2 - 0.0
27/07:34am 9.4 -3.3 3.1 65 2.7 WSW 59 78 32 42 1019.1 - 0.0
27/07:30am 9.3 -3.9 2.1 61 3.0 WSW 61 78 33 42 1018.9 - 0.0
27/07:01am 9.1 -3.9 1.3 58 3.2 W 59 80 32 43 1018.4 - 0.0
27/07:00am 9.0 -4.0 1.2 58 3.2 W 59 74 32 40 1018.5 - 0.0
27/06:30am 9.0 -4.0 1.5 59 3.1 WSW 59 78 32 42 1018.3 - 0.0
27/06:00am 9.4 -3.0 2.8 63 2.8 W 57 82 31 44 1017.9 1017.9 0.0
27/05:30am 9.3 -2.8 1.0 56 3.4 WSW 54 72 29 39 1017.3 - 0.0
27/05:00am 9.3 -3.2 1.0 56 3.4 W 56 80 30 43 1017.3 - 0.0
27/04:33am 9.4 -2.8 0.2 52 3.7 W 54 82 29 44 1017.2 - 0.0
27/04:30am 9.5 -2.7 0.3 52 3.7 W 54 70 29 38 1017.2 - 0.0
27/04:10am 9.6 -3.0 0.4 52 3.7 W 56 76 30 41 1016.9 - 0.0
27/04:00am 9.5 -2.7 0.6 54 3.6 W 54 67 29 36 1017.0 - 0.0
27/03:47am 9.8 -2.1 2.2 59 3.2 W 54 72 29 39 1016.8 - 0.0
27/03:30am 9.8 -1.6 0.4 52 3.8 W 50 65 27 35 1016.4 - 0.0
27/03:00am 9.8 -1.7 -0.2 50 4.0 W 50 61 27 33 1016.5 1016.4 0.0
27/02:30am 10.0 -1.9 -0.3 48 4.1 W 52 74 28 40 1016.3 - 0.0
27/02:00am 10.1 -1.3 0.8 52 3.8 W 50 70 27 38 1016.1 - 0.0
27/01:47am 10.2 -0.9 -0.3 48 4.2 W 48 67 26 36 1016.1 - 0.0
27/01:30am 10.1 -0.8 -1.1 45 4.4 W 46 57 25 31 1015.9 - 0.0
27/01:00am 10.0 -1.4 -2.0 43 4.6 W 48 67 26 36 1015.8 - 0.0
27/12:30am 10.1 -0.5 -2.2 42 4.7 W 44 59 24 32 1015.9 - 0.0
27/12:00am 9.9 -0.5 -1.8 44 4.5 W 43 57 23 31 1015.7 1015.7 0.0
 
Date/Time
EST
Temp
°C
App
Temp
°C
Dew
Point
Rel
Hum
%
Delta-T
°C
Wind Press
QNH
hPa
Press
MSL
hPa
Rain
since 9 am
mm
Dir
 
Spd
km/h
Gust
km/h
Spd
kts
Gust
kts
26/11:30pm 10.0 -0.4 -1.7 44 4.5 W 43 57 23 31 1015.4 - 0.0
26/11:00pm 10.0 -0.6 -2.0 43 4.6 W 44 65 24 35 1015.3 - 0.0
26/10:57pm 9.9 -0.8 -2.5 42 4.7 W 44 65 24 35 1015.2 - 0.0
26/10:30pm 9.9 -0.8 -2.5 42 4.7 W 44 61 24 33 1014.9 - 0.0
26/10:22pm 9.8 -0.4 -3.1 40 4.8 W 41 61 22 33 1014.8 - 0.0
26/10:00pm 9.9 -0.2 -2.2 42 4.6 W 41 54 22 29 1015.0 - 0.0
26/09:30pm 9.9 0.5 -2.5 42 4.7 W 37 46 20 25 1014.8 - 0.0
26/09:00pm 9.3 2.7 -0.6 50 3.9 W 24 37 13 20 1014.4 1014.3 0.0
26/08:30pm 9.3 2.1 0.4 54 3.6 W 28 41 15 22 1013.9 - 0.0
26/08:00pm 9.0 2.5 0.6 55 3.4 W 24 33 13 18 1014.0 - 0.0
26/07:30pm 8.9 3.0 1.6 60 3.0 W 22 28 12 15 1013.8 - 0.0
26/07:00pm 9.0 1.7 2.3 63 2.8 W 30 39 16 21 1013.5 - 0.0
26/06:30pm 9.5 1.6 2.1 60 3.1 WSW 33 43 18 23 1013.0 - 0.0
26/06:16pm 9.5 0.6 3.2 65 2.7 WSW 39 56 21 30 1012.9 - 0.0
26/06:03pm 9.8 -2.9 3.3 64 2.8 WSW 59 80 32 43 1012.8 - 0.0
26/06:00pm 10.2 -1.2 3.0 61 3.1 WSW 52 80 28 43 1012.7 1012.7 0.0
26/05:55pm 10.5 0.4 1.7 54 3.7 WSW 44 80 24 43 1012.6 - 0.0
26/05:52pm 11.1 2.0 1.9 53 3.9 WSW 39 59 21 32 1012.5 - 0.0
26/05:30pm 11.2 2.6 0.5 47 4.4 WSW 35 50 19 27 1011.7 - 0.0
26/05:00pm 11.4 2.9 0.8 48 4.4 W 35 44 19 24 1011.2 - 0.0
26/04:30pm 12.1 2.4 3.0 53 4.0 WSW 43 56 23 30 1010.6 - 0.0
26/04:00pm 12.1 4.5 4.1 58 3.6 WSW 33 44 18 24 1010.2 - 0.0
26/03:30pm 12.7 3.7 4.6 58 3.7 SW 41 48 22 26 1009.7 - 0.0
26/03:00pm 12.7 6.4 5.9 63 3.2 WSW 28 35 15 19 1009.6 1009.6 0.0
26/02:30pm 12.3 5.0 7.1 70 2.5 SW 35 43 19 23 1009.2 - 0.0
26/02:00pm 12.0 4.4 7.5 74 2.2 SW 37 44 20 24 1008.9 - 0.0
26/01:30pm 12.0 6.5 7.7 75 2.1 SW 26 32 14 17 1008.9 - 0.0
26/01:00pm 12.3 7.9 7.6 73 2.3 W 20 26 11 14 1009.2 - 0.0
26/12:30pm 11.9 3.9 7.4 74 2.2 WSW 39 48 21 26 1009.4 - 0.0
26/12:00pm 11.8 1.7 7.2 73 2.2 SW 50 57 27 31 1009.2 1009.2 0.0
26/11:30am 12.5 3.6 7.6 72 2.4 SW 44 52 24 28 1009.5 - 0.0
26/11:00am 12.4 3.9 8.4 76 2.0 SW 43 52 23 28 1009.4 - 0.0
26/10:30am 13.7 7.1 8.5 71 2.6 SW 33 41 18 22 1009.5 - 0.0
26/10:00am 14.7 9.7 6.4 57 4.0 WSW 22 35 12 19 1009.3 - 0.0
26/09:30am 14.6 9.6 3.4 47 5.1 N 19 28 10 15 1008.7 - 0.0
26/09:00am 14.2 8.1 2.5 45 5.2 N 24 35 13 19 1008.5 1008.5 0.0
26/08:30am 13.3 7.2 2.7 48 4.7 N 24 37 13 20 1008.8 - 0.0
26/08:00am 11.3 5.7 3.6 59 3.4 N 22 32 12 17 1008.7 - 0.0
26/07:30am 10.4 4.3 2.7 59 3.3 N 24 32 13 17 1008.8 - 0.0
26/07:00am 9.8 3.7 2.8 61 3.0 N 24 32 13 17 1009.0 - 0.0
26/06:30am 9.3 4.5 2.5 62 2.9 N 17 20 9 11 1009.0 - 0.0
26/06:00am 9.7 4.6 3.0 63 2.9 N 19 24 10 13 1008.9 1009.0 0.0
26/05:30am 9.9 4.6 2.1 58 3.3 NNE 19 22 10 12 1009.1 - 0.0
26/05:00am 10.2 5.0 2.5 59 3.3 N 19 22 10 12 1009.1 - 0.0
26/04:30am 10.3 4.8 1.7 55 3.6 NNE 20 24 11 13 1008.9 - 0.0
26/04:00am 10.2 4.4 2.2 57 3.4 NNE 22 30 12 16 1009.2 - 0.0

Other Formats:

Comma delimited format used in spreadsheet applications
http://www.bom.gov.au/fwo/IDV60801/IDV60801.94933.axf

JavaScript Object Notation format (JSON) in row-major order
http://www.bom.gov.au/fwo/IDV60801/IDV60801.94933.json